sensor_id;sensor_type;location;lat;lon;timestamp;temperature;humidity
26378;DHT22;14078;50.974;6.786;2023-05-10T00:00:11;13.00;99.90
26378;DHT22;14078;50.974;6.786;2023-05-10T00:02:38;13.00;99.90
26378;DHT22;14078;50.974;6.786;2023-05-10T00:05:05;13.00;99.90
26378;DHT22;14078;50.974;6.786;2023-05-10T00:07:32;13.00;99.90
26378;DHT22;14078;50.974;6.786;2023-05-10T00:09:59;13.00;99.90
26378;DHT22;14078;50.974;6.786;2023-05-10T00:12:25;13.00;99.90
26378;DHT22;14078;50.974;6.786;2023-05-10T00:14:53;13.10;99.90
26378;DHT22;14078;50.974;6.786;2023-05-10T00:17:20;13.10;99.90
26378;DHT22;14078;50.974;6.786;2023-05-10T00:19:46;13.10;99.90
26378;DHT22;14078;50.974;6.786;2023-05-10T00:22:13;13.20;99.90
26378;DHT22;14078;50.974;6.786;2023-05-10T00:24:40;13.10;99.90
26378;DHT22;14078;50.974;6.786;2023-05-10T00:27:06;13.10;99.90
26378;DHT22;14078;50.974;6.786;2023-05-10T00:29:33;13.10;99.90
26378;DHT22;14078;50.974;6.786;2023-05-10T00:32:03;13.10;99.90
26378;DHT22;14078;50.974;6.786;2023-05-10T00:34:29;13.10;99.90
26378;DHT22;14078;50.974;6.786;2023-05-10T00:36:56;13.10;99.90
26378;DHT22;14078;50.974;6.786;2023-05-10T00:39:23;13.10;99.90
26378;DHT22;14078;50.974;6.786;2023-05-10T00:41:49;13.10;99.90
26378;DHT22;14078;50.974;6.786;2023-05-10T00:44:16;13.10;99.90
26378;DHT22;14078;50.974;6.786;2023-05-10T00:46:43;13.10;99.90
26378;DHT22;14078;50.974;6.786;2023-05-10T00:49:11;13.00;99.90
26378;DHT22;14078;50.974;6.786;2023-05-10T00:51:38;13.10;99.90
26378;DHT22;14078;50.974;6.786;2023-05-10T00:54:04;13.10;99.90
26378;DHT22;14078;50.974;6.786;2023-05-10T00:56:31;13.10;99.90
26378;DHT22;14078;50.974;6.786;2023-05-10T00:58:58;13.10;99.90
26378;DHT22;14078;50.974;6.786;2023-05-10T01:01:24;13.00;99.90
26378;DHT22;14078;50.974;6.786;2023-05-10T01:03:51;13.00;99.90
26378;DHT22;14078;50.974;6.786;2023-05-10T01:06:19;13.00;99.90
26378;DHT22;14078;50.974;6.786;2023-05-10T01:08:46;13.00;99.90
26378;DHT22;14078;50.974;6.786;2023-05-10T01:11:13;13.10;99.90
26378;DHT22;14078;50.974;6.786;2023-05-10T01:13:40;13.10;99.90
26378;DHT22;14078;50.974;6.786;2023-05-10T01:16:07;13.00;99.90
26378;DHT22;14078;50.974;6.786;2023-05-10T01:18:34;12.90;99.90
26378;DHT22;14078;50.974;6.786;2023-05-10T01:21:04;12.90;99.90
26378;DHT22;14078;50.974;6.786;2023-05-10T01:23:42;12.90;99.90
26378;DHT22;14078;50.974;6.786;2023-05-10T01:26:18;12.90;99.90
26378;DHT22;14078;50.974;6.786;2023-05-10T01:34:38;13.00;99.90
26378;DHT22;14078;50.974;6.786;2023-05-10T01:37:08;12.90;99.90
26378;DHT22;14078;50.974;6.786;2023-05-10T01:39:36;12.90;99.90
26378;DHT22;14078;50.974;6.786;2023-05-10T01:42:08;12.90;99.90
26378;DHT22;14078;50.974;6.786;2023-05-10T01:44:37;13.00;99.90
26378;DHT22;14078;50.974;6.786;2023-05-10T01:47:07;12.90;99.90
26378;DHT22;14078;50.974;6.786;2023-05-10T01:49:39;12.90;99.90
26378;DHT22;14078;50.974;6.786;2023-05-10T01:52:06;12.90;99.90
26378;DHT22;14078;50.974;6.786;2023-05-10T01:54:34;12.90;99.90
26378;DHT22;14078;50.974;6.786;2023-05-10T01:57:02;13.00;99.90
26378;DHT22;14078;50.974;6.786;2023-05-10T01:59:31;13.10;99.90
26378;DHT22;14078;50.974;6.786;2023-05-10T02:02:01;13.10;99.90
26378;DHT22;14078;50.974;6.786;2023-05-10T02:04:28;13.10;99.90
26378;DHT22;14078;50.974;6.786;2023-05-10T02:06:56;13.00;99.90
26378;DHT22;14078;50.974;6.786;2023-05-10T02:09:23;13.00;99.90
26378;DHT22;14078;50.974;6.786;2023-05-10T02:11:51;12.80;99.90
26378;DHT22;14078;50.974;6.786;2023-05-10T02:14:18;12.80;99.90
26378;DHT22;14078;50.974;6.786;2023-05-10T02:16:46;12.80;99.90
26378;DHT22;14078;50.974;6.786;2023-05-10T02:19:12;12.70;99.90
26378;DHT22;14078;50.974;6.786;2023-05-10T02:21:40;12.70;99.90
26378;DHT22;14078;50.974;6.786;2023-05-10T02:24:09;12.70;99.90
26378;DHT22;14078;50.974;6.786;2023-05-10T02:26:36;12.70;99.90
26378;DHT22;14078;50.974;6.786;2023-05-10T02:29:04;12.80;99.90
26378;DHT22;14078;50.974;6.786;2023-05-10T02:31:32;12.80;99.90
26378;DHT22;14078;50.974;6.786;2023-05-10T02:33:59;12.70;99.90
26378;DHT22;14078;50.974;6.786;2023-05-10T02:36:26;12.70;99.90
26378;DHT22;14078;50.974;6.786;2023-05-10T02:38:53;12.70;99.90
26378;DHT22;14078;50.974;6.786;2023-05-10T02:41:21;12.70;99.90
26378;DHT22;14078;50.974;6.786;2023-05-10T02:43:49;12.70;99.90
26378;DHT22;14078;50.974;6.786;2023-05-10T02:46:16;12.70;99.90
26378;DHT22;14078;50.974;6.786;2023-05-10T02:48:43;12.80;99.90
26378;DHT22;14078;50.974;6.786;2023-05-10T02:51:10;12.90;99.90
26378;DHT22;14078;50.974;6.786;2023-05-10T02:53:39;12.90;99.90
26378;DHT22;14078;50.974;6.786;2023-05-10T02:56:09;12.90;99.90
26378;DHT22;14078;50.974;6.786;2023-05-10T02:58:40;13.00;99.90
26378;DHT22;14078;50.974;6.786;2023-05-10T03:01:06;13.00;99.90
26378;DHT22;14078;50.974;6.786;2023-05-10T03:03:33;12.90;99.90
26378;DHT22;14078;50.974;6.786;2023-05-10T03:06:00;12.90;99.90
26378;DHT22;14078;50.974;6.786;2023-05-10T03:08:26;13.00;99.90
26378;DHT22;14078;50.974;6.786;2023-05-10T03:10:55;13.00;99.90
26378;DHT22;14078;50.974;6.786;2023-05-10T03:13:26;13.10;99.90
26378;DHT22;14078;50.974;6.786;2023-05-10T03:15:57;13.10;99.90
26378;DHT22;14078;50.974;6.786;2023-05-10T03:18:28;13.10;99.90
26378;DHT22;14078;50.974;6.786;2023-05-10T03:20:57;13.10;99.90
26378;DHT22;14078;50.974;6.786;2023-05-10T03:23:26;13.10;99.90
26378;DHT22;14078;50.974;6.786;2023-05-10T03:25:53;13.00;99.90
26378;DHT22;14078;50.974;6.786;2023-05-10T03:28:20;13.00;99.90
26378;DHT22;14078;50.974;6.786;2023-05-10T03:30:47;12.90;99.90
26378;DHT22;14078;50.974;6.786;2023-05-10T03:33:14;12.90;99.90
26378;DHT22;14078;50.974;6.786;2023-05-10T03:35:41;12.90;99.90
26378;DHT22;14078;50.974;6.786;2023-05-10T03:38:10;12.90;99.90
26378;DHT22;14078;50.974;6.786;2023-05-10T03:40:37;13.00;99.90
26378;DHT22;14078;50.974;6.786;2023-05-10T03:43:03;13.00;99.90
26378;DHT22;14078;50.974;6.786;2023-05-10T03:45:30;13.00;99.90
26378;DHT22;14078;50.974;6.786;2023-05-10T03:47:57;13.10;99.90
26378;DHT22;14078;50.974;6.786;2023-05-10T03:50:25;13.00;99.90
26378;DHT22;14078;50.974;6.786;2023-05-10T03:52:51;13.00;99.90
26378;DHT22;14078;50.974;6.786;2023-05-10T03:55:18;13.10;99.90
26378;DHT22;14078;50.974;6.786;2023-05-10T03:57:44;13.10;99.90
26378;DHT22;14078;50.974;6.786;2023-05-10T04:00:11;13.10;99.90
26378;DHT22;14078;50.974;6.786;2023-05-10T04:02:38;13.10;99.90
26378;DHT22;14078;50.974;6.786;2023-05-10T04:05:04;13.10;99.90
26378;DHT22;14078;50.974;6.786;2023-05-10T04:07:32;13.00;99.90
26378;DHT22;14078;50.974;6.786;2023-05-10T04:09:59;13.00;99.90
26378;DHT22;14078;50.974;6.786;2023-05-10T04:12:26;13.00;99.90
26378;DHT22;14078;50.974;6.786;2023-05-10T04:14:52;13.00;99.90
26378;DHT22;14078;50.974;6.786;2023-05-10T04:17:19;13.00;99.90
26378;DHT22;14078;50.974;6.786;2023-05-10T04:19:46;13.00;99.90
26378;DHT22;14078;50.974;6.786;2023-05-10T04:22:12;13.00;99.90
26378;DHT22;14078;50.974;6.786;2023-05-10T04:24:40;13.00;99.90
26378;DHT22;14078;50.974;6.786;2023-05-10T04:27:06;12.90;99.90
26378;DHT22;14078;50.974;6.786;2023-05-10T04:29:33;12.90;99.90
26378;DHT22;14078;50.974;6.786;2023-05-10T04:31:59;12.90;99.90
26378;DHT22;14078;50.974;6.786;2023-05-10T04:34:26;12.90;99.90
26378;DHT22;14078;50.974;6.786;2023-05-10T04:36:52;12.80;99.90
26378;DHT22;14078;50.974;6.786;2023-05-10T04:39:19;12.80;99.90
26378;DHT22;14078;50.974;6.786;2023-05-10T04:41:47;12.80;99.90
26378;DHT22;14078;50.974;6.786;2023-05-10T04:44:13;12.80;99.90
26378;DHT22;14078;50.974;6.786;2023-05-10T04:46:40;12.80;99.90
26378;DHT22;14078;50.974;6.786;2023-05-10T04:49:06;12.80;99.90
26378;DHT22;14078;50.974;6.786;2023-05-10T04:51:33;12.80;99.90
26378;DHT22;14078;50.974;6.786;2023-05-10T04:53:59;12.80;99.90
26378;DHT22;14078;50.974;6.786;2023-05-10T04:56:26;12.80;99.90
26378;DHT22;14078;50.974;6.786;2023-05-10T04:58:53;12.90;99.90
26378;DHT22;14078;50.974;6.786;2023-05-10T05:01:20;12.90;99.90
26378;DHT22;14078;50.974;6.786;2023-05-10T05:03:48;12.90;99.90
26378;DHT22;14078;50.974;6.786;2023-05-10T05:06:14;12.90;99.90
26378;DHT22;14078;50.974;6.786;2023-05-10T05:08:41;12.90;99.90
26378;DHT22;14078;50.974;6.786;2023-05-10T05:11:07;12.90;99.90
26378;DHT22;14078;50.974;6.786;2023-05-10T05:13:34;12.90;99.90
26378;DHT22;14078;50.974;6.786;2023-05-10T05:16:02;12.90;99.90
26378;DHT22;14078;50.974;6.786;2023-05-10T05:18:28;12.90;99.90
26378;DHT22;14078;50.974;6.786;2023-05-10T05:20:55;12.90;99.90
26378;DHT22;14078;50.974;6.786;2023-05-10T05:23:21;13.00;99.90
26378;DHT22;14078;50.974;6.786;2023-05-10T05:25:50;13.00;99.90
26378;DHT22;14078;50.974;6.786;2023-05-10T05:28:17;13.00;99.90
26378;DHT22;14078;50.974;6.786;2023-05-10T05:30:43;13.00;99.90
26378;DHT22;14078;50.974;6.786;2023-05-10T05:33:12;13.10;99.90
26378;DHT22;14078;50.974;6.786;2023-05-10T05:35:39;13.10;99.90
26378;DHT22;14078;50.974;6.786;2023-05-10T05:38:05;13.10;99.90
26378;DHT22;14078;50.974;6.786;2023-05-10T05:40:32;13.10;99.90
26378;DHT22;14078;50.974;6.786;2023-05-10T05:42:58;13.20;99.90
26378;DHT22;14078;50.974;6.786;2023-05-10T05:45:25;13.20;99.90
26378;DHT22;14078;50.974;6.786;2023-05-10T05:47:51;13.20;99.90
26378;DHT22;14078;50.974;6.786;2023-05-10T05:50:19;13.20;99.90
26378;DHT22;14078;50.974;6.786;2023-05-10T05:52:46;13.20;99.90
26378;DHT22;14078;50.974;6.786;2023-05-10T05:55:12;13.30;99.90
26378;DHT22;14078;50.974;6.786;2023-05-10T05:57:39;13.30;99.90
26378;DHT22;14078;50.974;6.786;2023-05-10T06:00:06;13.30;99.90
26378;DHT22;14078;50.974;6.786;2023-05-10T06:02:32;13.20;99.90
26378;DHT22;14078;50.974;6.786;2023-05-10T06:04:59;13.30;99.90
26378;DHT22;14078;50.974;6.786;2023-05-10T06:07:27;13.30;99.90
26378;DHT22;14078;50.974;6.786;2023-05-10T06:09:53;13.30;99.90
26378;DHT22;14078;50.974;6.786;2023-05-10T06:12:20;13.30;99.90
26378;DHT22;14078;50.974;6.786;2023-05-10T06:14:46;13.30;99.90
26378;DHT22;14078;50.974;6.786;2023-05-10T06:17:13;13.30;99.90
26378;DHT22;14078;50.974;6.786;2023-05-10T06:19:39;13.30;99.90
26378;DHT22;14078;50.974;6.786;2023-05-10T06:22:06;13.30;99.90
26378;DHT22;14078;50.974;6.786;2023-05-10T06:24:34;13.40;99.90
26378;DHT22;14078;50.974;6.786;2023-05-10T06:27:00;13.30;99.90
26378;DHT22;14078;50.974;6.786;2023-05-10T06:29:27;13.30;99.90
26378;DHT22;14078;50.974;6.786;2023-05-10T06:31:53;13.30;99.90
26378;DHT22;14078;50.974;6.786;2023-05-10T06:34:20;13.30;99.90
26378;DHT22;14078;50.974;6.786;2023-05-10T06:36:46;13.30;99.90
26378;DHT22;14078;50.974;6.786;2023-05-10T06:39:13;13.30;99.90
26378;DHT22;14078;50.974;6.786;2023-05-10T06:41:41;13.30;99.90
26378;DHT22;14078;50.974;6.786;2023-05-10T06:44:07;13.30;99.90
26378;DHT22;14078;50.974;6.786;2023-05-10T06:46:34;13.40;99.90
26378;DHT22;14078;50.974;6.786;2023-05-10T06:49:01;13.40;99.90
26378;DHT22;14078;50.974;6.786;2023-05-10T06:51:28;13.40;99.90
26378;DHT22;14078;50.974;6.786;2023-05-10T06:53:55;13.40;99.90
26378;DHT22;14078;50.974;6.786;2023-05-10T06:56:21;13.50;99.90
26378;DHT22;14078;50.974;6.786;2023-05-10T06:58:49;13.50;99.90
26378;DHT22;14078;50.974;6.786;2023-05-10T07:01:15;13.50;99.90
26378;DHT22;14078;50.974;6.786;2023-05-10T07:03:42;13.60;99.90
26378;DHT22;14078;50.974;6.786;2023-05-10T07:06:08;13.60;99.90
26378;DHT22;14078;50.974;6.786;2023-05-10T07:08:35;13.70;99.90
26378;DHT22;14078;50.974;6.786;2023-05-10T07:11:02;13.70;99.90
26378;DHT22;14078;50.974;6.786;2023-05-10T07:13:29;13.70;99.90
26378;DHT22;14078;50.974;6.786;2023-05-10T07:15:58;13.70;99.90
26378;DHT22;14078;50.974;6.786;2023-05-10T07:18:24;13.80;99.90
26378;DHT22;14078;50.974;6.786;2023-05-10T07:20:51;13.70;99.90
26378;DHT22;14078;50.974;6.786;2023-05-10T07:23:18;13.70;99.90
26378;DHT22;14078;50.974;6.786;2023-05-10T07:25:45;13.70;99.90
26378;DHT22;14078;50.974;6.786;2023-05-10T07:28:11;13.60;99.90
26378;DHT22;14078;50.974;6.786;2023-05-10T07:30:38;13.50;99.90
26378;DHT22;14078;50.974;6.786;2023-05-10T07:33:06;13.50;99.90
26378;DHT22;14078;50.974;6.786;2023-05-10T07:35:33;13.60;99.90
26378;DHT22;14078;50.974;6.786;2023-05-10T07:38:00;13.60;99.90
26378;DHT22;14078;50.974;6.786;2023-05-10T07:40:26;13.70;99.90
26378;DHT22;14078;50.974;6.786;2023-05-10T07:42:53;13.70;99.90
26378;DHT22;14078;50.974;6.786;2023-05-10T07:45:19;13.70;99.90
26378;DHT22;14078;50.974;6.786;2023-05-10T07:47:46;13.60;99.90
26378;DHT22;14078;50.974;6.786;2023-05-10T07:50:14;13.70;99.90
26378;DHT22;14078;50.974;6.786;2023-05-10T07:52:40;13.70;99.90
26378;DHT22;14078;50.974;6.786;2023-05-10T07:55:07;13.80;99.90
26378;DHT22;14078;50.974;6.786;2023-05-10T07:57:34;13.80;99.90
26378;DHT22;14078;50.974;6.786;2023-05-10T08:00:01;13.90;99.90
26378;DHT22;14078;50.974;6.786;2023-05-10T08:02:27;13.80;99.90
26378;DHT22;14078;50.974;6.786;2023-05-10T08:04:54;13.80;99.90
26378;DHT22;14078;50.974;6.786;2023-05-10T08:07:22;13.90;99.90
26378;DHT22;14078;50.974;6.786;2023-05-10T08:09:49;13.90;99.90
26378;DHT22;14078;50.974;6.786;2023-05-10T08:12:15;14.00;99.90
26378;DHT22;14078;50.974;6.786;2023-05-10T08:14:42;14.00;99.90
26378;DHT22;14078;50.974;6.786;2023-05-10T08:17:08;14.00;99.90
26378;DHT22;14078;50.974;6.786;2023-05-10T08:19:38;13.90;99.90
26378;DHT22;14078;50.974;6.786;2023-05-10T08:22:04;13.90;99.90
26378;DHT22;14078;50.974;6.786;2023-05-10T08:24:32;13.80;99.90
26378;DHT22;14078;50.974;6.786;2023-05-10T08:27:03;13.80;99.90
26378;DHT22;14078;50.974;6.786;2023-05-10T08:29:30;13.80;99.90
26378;DHT22;14078;50.974;6.786;2023-05-10T08:31:56;13.70;99.90
26378;DHT22;14078;50.974;6.786;2023-05-10T08:34:23;13.80;99.90
26378;DHT22;14078;50.974;6.786;2023-05-10T08:36:50;13.80;99.90
26378;DHT22;14078;50.974;6.786;2023-05-10T08:39:16;13.70;99.90
26378;DHT22;14078;50.974;6.786;2023-05-10T08:41:44;13.60;99.90
26378;DHT22;14078;50.974;6.786;2023-05-10T08:44:12;13.50;99.90
26378;DHT22;14078;50.974;6.786;2023-05-10T08:46:40;13.60;99.90
26378;DHT22;14078;50.974;6.786;2023-05-10T08:49:09;13.70;99.90
26378;DHT22;14078;50.974;6.786;2023-05-10T08:51:38;13.80;99.90
26378;DHT22;14078;50.974;6.786;2023-05-10T08:54:06;13.90;99.90
26378;DHT22;14078;50.974;6.786;2023-05-10T08:56:33;13.90;99.90
26378;DHT22;14078;50.974;6.786;2023-05-10T08:59:01;14.00;99.90
26378;DHT22;14078;50.974;6.786;2023-05-10T09:01:28;13.90;99.90
26378;DHT22;14078;50.974;6.786;2023-05-10T09:03:55;13.90;99.90
26378;DHT22;14078;50.974;6.786;2023-05-10T09:06:21;13.70;99.90
26378;DHT22;14078;50.974;6.786;2023-05-10T09:08:48;13.70;99.90
26378;DHT22;14078;50.974;6.786;2023-05-10T09:11:15;13.60;99.90
26378;DHT22;14078;50.974;6.786;2023-05-10T09:13:42;13.50;99.90
26378;DHT22;14078;50.974;6.786;2023-05-10T09:16:10;13.40;99.90
26378;DHT22;14078;50.974;6.786;2023-05-10T09:18:36;13.50;99.90
26378;DHT22;14078;50.974;6.786;2023-05-10T09:21:03;13.50;99.90
26378;DHT22;14078;50.974;6.786;2023-05-10T09:23:30;13.70;99.90
26378;DHT22;14078;50.974;6.786;2023-05-10T09:26:03;13.90;99.90
26378;DHT22;14078;50.974;6.786;2023-05-10T09:28:31;14.20;99.90
26378;DHT22;14078;50.974;6.786;2023-05-10T09:30:57;14.40;99.90
26378;DHT22;14078;50.974;6.786;2023-05-10T09:33:25;14.60;99.90
26378;DHT22;14078;50.974;6.786;2023-05-10T09:35:52;15.00;99.90
26378;DHT22;14078;50.974;6.786;2023-05-10T09:38:19;15.00;99.90
26378;DHT22;14078;50.974;6.786;2023-05-10T09:40:50;14.90;99.90
26378;DHT22;14078;50.974;6.786;2023-05-10T09:43:19;14.90;99.90
26378;DHT22;14078;50.974;6.786;2023-05-10T09:45:47;14.90;99.90
26378;DHT22;14078;50.974;6.786;2023-05-10T09:48:14;14.90;99.90
26378;DHT22;14078;50.974;6.786;2023-05-10T09:50:42;14.90;99.90
26378;DHT22;14078;50.974;6.786;2023-05-10T09:53:09;14.90;99.90
26378;DHT22;14078;50.974;6.786;2023-05-10T09:55:41;14.90;99.90
26378;DHT22;14078;50.974;6.786;2023-05-10T09:58:09;15.00;99.90
26378;DHT22;14078;50.974;6.786;2023-05-10T10:00:36;15.10;99.90
26378;DHT22;14078;50.974;6.786;2023-05-10T10:03:03;15.20;99.90
26378;DHT22;14078;50.974;6.786;2023-05-10T10:05:29;15.30;99.90
26378;DHT22;14078;50.974;6.786;2023-05-10T10:07:58;15.40;99.90
26378;DHT22;14078;50.974;6.786;2023-05-10T10:10:24;15.40;99.90
26378;DHT22;14078;50.974;6.786;2023-05-10T10:12:51;15.60;99.90
26378;DHT22;14078;50.974;6.786;2023-05-10T10:15:17;15.80;99.90
26378;DHT22;14078;50.974;6.786;2023-05-10T10:17:44;15.80;99.90
26378;DHT22;14078;50.974;6.786;2023-05-10T10:20:11;16.00;99.90
26378;DHT22;14078;50.974;6.786;2023-05-10T10:22:38;16.20;99.90
26378;DHT22;14078;50.974;6.786;2023-05-10T10:25:07;16.10;99.90
26378;DHT22;14078;50.974;6.786;2023-05-10T10:27:36;16.00;99.90
26378;DHT22;14078;50.974;6.786;2023-05-10T10:30:09;16.00;99.90
26378;DHT22;14078;50.974;6.786;2023-05-10T10:32:42;16.10;99.90
26378;DHT22;14078;50.974;6.786;2023-05-10T10:35:12;16.40;99.90
26378;DHT22;14078;50.974;6.786;2023-05-10T10:37:43;16.60;99.90
26378;DHT22;14078;50.974;6.786;2023-05-10T10:40:23;16.70;99.90
26378;DHT22;14078;50.974;6.786;2023-05-10T10:42:51;16.70;99.90
26378;DHT22;14078;50.974;6.786;2023-05-10T10:45:19;16.80;99.90
26378;DHT22;14078;50.974;6.786;2023-05-10T10:47:46;16.60;99.90
26378;DHT22;14078;50.974;6.786;2023-05-10T10:50:12;16.50;99.90
26378;DHT22;14078;50.974;6.786;2023-05-10T10:52:41;16.50;99.90
26378;DHT22;14078;50.974;6.786;2023-05-10T10:55:09;16.20;99.90
26378;DHT22;14078;50.974;6.786;2023-05-10T10:57:44;16.10;99.90
26378;DHT22;14078;50.974;6.786;2023-05-10T11:00:21;16.10;99.90
26378;DHT22;14078;50.974;6.786;2023-05-10T11:02:48;15.90;99.90
26378;DHT22;14078;50.974;6.786;2023-05-10T11:05:23;15.90;99.90
26378;DHT22;14078;50.974;6.786;2023-05-10T11:07:53;15.80;99.90
26378;DHT22;14078;50.974;6.786;2023-05-10T11:10:19;15.80;99.90
26378;DHT22;14078;50.974;6.786;2023-05-10T11:12:54;15.90;99.90
26378;DHT22;14078;50.974;6.786;2023-05-10T11:15:29;16.30;99.90
26378;DHT22;14078;50.974;6.786;2023-05-10T11:17:56;16.60;99.90
26378;DHT22;14078;50.974;6.786;2023-05-10T11:20:23;16.60;99.90
26378;DHT22;14078;50.974;6.786;2023-05-10T11:22:54;16.50;99.90
26378;DHT22;14078;50.974;6.786;2023-05-10T11:25:25;16.50;99.90
26378;DHT22;14078;50.974;6.786;2023-05-10T11:27:54;16.40;99.90
26378;DHT22;14078;50.974;6.786;2023-05-10T11:30:22;16.60;99.90
26378;DHT22;14078;50.974;6.786;2023-05-10T11:32:48;16.70;99.90
26378;DHT22;14078;50.974;6.786;2023-05-10T11:35:15;16.70;99.90
26378;DHT22;14078;50.974;6.786;2023-05-10T11:37:42;16.90;99.90
26378;DHT22;14078;50.974;6.786;2023-05-10T11:40:10;16.90;99.90
26378;DHT22;14078;50.974;6.786;2023-05-10T11:42:37;17.10;99.90
26378;DHT22;14078;50.974;6.786;2023-05-10T11:45:06;17.40;99.90
26378;DHT22;14078;50.974;6.786;2023-05-10T11:47:33;17.40;99.90
26378;DHT22;14078;50.974;6.786;2023-05-10T11:50:00;17.30;97.90
26378;DHT22;14078;50.974;6.786;2023-05-10T11:52:27;17.40;97.10
26378;DHT22;14078;50.974;6.786;2023-05-10T11:54:54;17.70;99.90
26378;DHT22;14078;50.974;6.786;2023-05-10T11:57:21;17.80;81.20
26378;DHT22;14078;50.974;6.786;2023-05-10T11:59:52;17.50;88.80
26378;DHT22;14078;50.974;6.786;2023-05-10T12:02:20;17.30;90.60
26378;DHT22;14078;50.974;6.786;2023-05-10T12:04:47;17.00;74.50
26378;DHT22;14078;50.974;6.786;2023-05-10T12:07:13;17.10;40.00
26378;DHT22;14078;50.974;6.786;2023-05-10T12:09:42;17.30;20.80
26378;DHT22;14078;50.974;6.786;2023-05-10T12:12:08;17.20;1.00
26378;DHT22;14078;50.974;6.786;2023-05-10T12:14:35;17.10;31.90
26378;DHT22;14078;50.974;6.786;2023-05-10T12:17:01;17.20;1.00
26378;DHT22;14078;50.974;6.786;2023-05-10T12:19:29;17.30;27.40
26378;DHT22;14078;50.974;6.786;2023-05-10T12:22:04;17.40;31.60
26378;DHT22;14078;50.974;6.786;2023-05-10T12:24:30;17.50;3.70
26378;DHT22;14078;50.974;6.786;2023-05-10T12:26:59;17.60;1.00
26378;DHT22;14078;50.974;6.786;2023-05-10T12:29:26;17.70;1.00
26378;DHT22;14078;50.974;6.786;2023-05-10T12:31:56;17.80;1.00
26378;DHT22;14078;50.974;6.786;2023-05-10T12:34:24;17.60;1.00
26378;DHT22;14078;50.974;6.786;2023-05-10T12:36:52;17.60;11.40
26378;DHT22;14078;50.974;6.786;2023-05-10T12:39:19;18.00;8.50
26378;DHT22;14078;50.974;6.786;2023-05-10T12:41:46;17.70;1.00
26378;DHT22;14078;50.974;6.786;2023-05-10T12:44:12;17.70;1.00
26378;DHT22;14078;50.974;6.786;2023-05-10T12:46:39;17.60;1.00
26378;DHT22;14078;50.974;6.786;2023-05-10T12:49:05;17.50;1.00
26378;DHT22;14078;50.974;6.786;2023-05-10T12:51:32;17.60;4.70
26378;DHT22;14078;50.974;6.786;2023-05-10T12:53:59;17.60;1.00
26378;DHT22;14078;50.974;6.786;2023-05-10T12:56:26;17.50;1.00
26378;DHT22;14078;50.974;6.786;2023-05-10T12:58:52;17.30;1.00
26378;DHT22;14078;50.974;6.786;2023-05-10T13:01:19;17.30;1.00
26378;DHT22;14078;50.974;6.786;2023-05-10T13:03:45;17.50;1.00
26378;DHT22;14078;50.974;6.786;2023-05-10T13:06:12;17.60;1.00
26378;DHT22;14078;50.974;6.786;2023-05-10T13:08:39;17.80;1.00
26378;DHT22;14078;50.974;6.786;2023-05-10T13:11:07;17.90;1.00
26378;DHT22;14078;50.974;6.786;2023-05-10T13:13:34;17.80;1.00
26378;DHT22;14078;50.974;6.786;2023-05-10T13:16:00;17.90;1.00
26378;DHT22;14078;50.974;6.786;2023-05-10T13:18:27;18.20;1.00
26378;DHT22;14078;50.974;6.786;2023-05-10T13:20:53;18.40;1.00
26378;DHT22;14078;50.974;6.786;2023-05-10T13:23:20;18.60;99.90
26378;DHT22;14078;50.974;6.786;2023-05-10T13:25:47;19.20;1.00
26378;DHT22;14078;50.974;6.786;2023-05-10T13:28:15;19.60;1.00
26378;DHT22;14078;50.974;6.786;2023-05-10T13:30:41;19.80;1.00
26378;DHT22;14078;50.974;6.786;2023-05-10T13:33:08;19.90;99.90
26378;DHT22;14078;50.974;6.786;2023-05-10T13:35:34;19.80;30.70
26378;DHT22;14078;50.974;6.786;2023-05-10T13:38:01;19.70;99.90
26378;DHT22;14078;50.974;6.786;2023-05-10T13:40:27;19.00;99.90
26378;DHT22;14078;50.974;6.786;2023-05-10T13:42:54;18.80;1.00
26378;DHT22;14078;50.974;6.786;2023-05-10T13:45:22;19.00;99.90
26378;DHT22;14078;50.974;6.786;2023-05-10T13:47:48;19.20;99.90
26378;DHT22;14078;50.974;6.786;2023-05-10T13:50:15;19.20;99.90
26378;DHT22;14078;50.974;6.786;2023-05-10T13:52:42;19.40;1.00
26378;DHT22;14078;50.974;6.786;2023-05-10T13:55:08;19.40;1.00
26378;DHT22;14078;50.974;6.786;2023-05-10T13:57:37;19.60;1.00
26378;DHT22;14078;50.974;6.786;2023-05-10T14:00:04;19.40;99.90
26378;DHT22;14078;50.974;6.786;2023-05-10T14:02:32;19.10;1.00
26378;DHT22;14078;50.974;6.786;2023-05-10T14:04:59;19.20;99.90
26378;DHT22;14078;50.974;6.786;2023-05-10T14:07:25;19.40;99.90
26378;DHT22;14078;50.974;6.786;2023-05-10T14:09:52;19.40;1.00
26378;DHT22;14078;50.974;6.786;2023-05-10T14:12:18;19.40;99.90
26378;DHT22;14078;50.974;6.786;2023-05-10T14:14:45;19.20;99.90
26378;DHT22;14078;50.974;6.786;2023-05-10T14:17:11;19.30;1.00
26378;DHT22;14078;50.974;6.786;2023-05-10T14:19:39;19.20;99.90
26378;DHT22;14078;50.974;6.786;2023-05-10T14:22:06;19.10;78.20
26378;DHT22;14078;50.974;6.786;2023-05-10T14:24:32;19.10;99.90
26378;DHT22;14078;50.974;6.786;2023-05-10T14:26:59;19.30;99.90
26378;DHT22;14078;50.974;6.786;2023-05-10T14:29:25;19.10;99.90
26378;DHT22;14078;50.974;6.786;2023-05-10T14:31:52;19.00;1.00
26378;DHT22;14078;50.974;6.786;2023-05-10T14:34:18;19.10;1.00
26378;DHT22;14078;50.974;6.786;2023-05-10T14:36:46;18.90;75.10
26378;DHT22;14078;50.974;6.786;2023-05-10T14:39:13;18.60;1.00
26378;DHT22;14078;50.974;6.786;2023-05-10T14:41:39;18.40;1.00
26378;DHT22;14078;50.974;6.786;2023-05-10T14:44:08;18.40;99.90
26378;DHT22;14078;50.974;6.786;2023-05-10T14:46:35;18.50;99.90
26378;DHT22;14078;50.974;6.786;2023-05-10T14:49:02;18.70;1.00
26378;DHT22;14078;50.974;6.786;2023-05-10T14:51:28;18.60;99.90
26378;DHT22;14078;50.974;6.786;2023-05-10T14:53:56;18.70;1.00
26378;DHT22;14078;50.974;6.786;2023-05-10T14:56:22;18.70;99.90
26378;DHT22;14078;50.974;6.786;2023-05-10T14:58:49;18.80;99.90
26378;DHT22;14078;50.974;6.786;2023-05-10T15:01:16;19.90;99.90
26378;DHT22;14078;50.974;6.786;2023-05-10T15:03:42;20.60;99.90
26378;DHT22;14078;50.974;6.786;2023-05-10T15:06:09;20.70;99.90
26378;DHT22;14078;50.974;6.786;2023-05-10T15:08:35;20.40;1.00
26378;DHT22;14078;50.974;6.786;2023-05-10T15:11:03;20.00;1.00
26378;DHT22;14078;50.974;6.786;2023-05-10T15:13:30;19.30;99.90
26378;DHT22;14078;50.974;6.786;2023-05-10T15:15:57;19.10;1.00
26378;DHT22;14078;50.974;6.786;2023-05-10T15:18:23;18.80;99.90
26378;DHT22;14078;50.974;6.786;2023-05-10T15:20:50;18.40;55.80
26378;DHT22;14078;50.974;6.786;2023-05-10T15:23:16;18.30;1.00
26378;DHT22;14078;50.974;6.786;2023-05-10T15:25:43;18.30;99.90
26378;DHT22;14078;50.974;6.786;2023-05-10T15:28:10;18.30;99.90
26378;DHT22;14078;50.974;6.786;2023-05-10T15:30:37;18.30;99.90
26378;DHT22;14078;50.974;6.786;2023-05-10T15:33:04;18.30;99.90
26378;DHT22;14078;50.974;6.786;2023-05-10T15:35:30;18.40;1.00
26378;DHT22;14078;50.974;6.786;2023-05-10T15:37:57;18.30;1.00